Time;durP1;ratioP1;P1;durP2;ratioP2;P2;SDS_P1;SDS_P2;PMS_P1;PMS_P2;Temp;Humidity;BMP_temperature;BMP_pressure;BME280_temperature;BME280_humidity;BME280_pressure;Samples;Min_cycle;Max_cycle;Signal;HPM_P1;HPM_P2
2022/04/06 00:01:31;;;;;;;6.07;4.68;;;;;;;11.02;88.03;99848.69;5115957;28;20026;-74
2022/04/06 00:03:56;;;;;;;6.38;4.90;;;;;;;11.00;87.82;99856.03;5099536;28;20019;-74
2022/04/06 00:06:22;;;;;;;5.68;4.75;;;;;;;10.98;88.80;99850.00;5112747;28;20081;-74
2022/04/06 00:08:47;;;;;;;6.82;4.80;;;;;;;10.94;88.94;99856.63;5107995;28;20027;-73
2022/04/06 00:11:14;;;;;;;5.88;4.43;;;;;;;10.84;88.65;99853.13;5116381;28;20050;-74
2022/04/06 00:13:39;;;;;;;6.65;4.28;;;;;;;10.87;88.35;99866.25;5108351;28;20031;-74
2022/04/06 00:16:05;;;;;;;6.10;4.63;;;;;;;10.85;89.19;99872.78;5095767;28;20031;-75
2022/04/06 00:18:30;;;;;;;7.60;5.25;;;;;;;10.82;89.14;99865.88;5097647;28;20027;-74
2022/04/06 00:20:56;;;;;;;7.70;4.55;;;;;;;10.78;90.57;99859.13;5099053;28;20024;-75
2022/04/06 00:23:21;;;;;;;6.53;5.00;;;;;;;10.74;90.64;99863.06;5096053;28;20553;-75
2022/04/06 00:25:46;;;;;;;6.45;5.25;;;;;;;10.68;91.10;99860.97;5088195;28;20506;-75
2022/04/06 00:28:12;;;;;;;6.28;5.00;;;;;;;10.63;90.95;99862.41;5101054;28;20484;-75
2022/04/06 00:30:37;;;;;;;5.57;4.78;;;;;;;10.47;91.68;99844.25;5093062;28;20028;-75
2022/04/06 00:33:03;;;;;;;7.00;5.78;;;;;;;10.49;91.88;99855.69;5087164;28;20112;-75
2022/04/06 00:35:28;;;;;;;5.93;5.03;;;;;;;10.42;92.05;99854.53;5081058;28;20060;-75
2022/04/06 00:38:02;;;;;;;8.68;5.90;;;;;;;10.42;91.44;99861.75;5095703;28;20438;-75
2022/04/06 00:40:29;;;;;;;7.40;5.40;;;;;;;10.36;91.63;99868.56;5100064;28;20031;-75
2022/04/06 00:42:55;;;;;;;6.40;5.40;;;;;;;10.29;91.79;99856.69;5100703;28;20513;-76
2022/04/06 00:45:22;;;;;;;7.57;5.97;;;;;;;10.28;92.01;99873.78;5103926;28;20058;-75
2022/04/06 00:47:48;;;;;;;7.93;5.53;;;;;;;10.20;92.01;99870.97;5098510;28;20047;-75
2022/04/06 00:50:13;;;;;;;6.57;5.47;;;;;;;10.10;91.59;99858.56;5104773;28;20511;-75
2022/04/06 00:52:41;;;;;;;6.80;5.35;;;;;;;10.07;91.35;99867.75;5084105;28;20484;-65
2022/04/06 00:55:08;;;;;;;8.63;6.22;;;;;;;10.05;90.49;99876.88;5100078;28;20444;-64
2022/04/06 00:57:34;;;;;;;9.70;5.93;;;;;;;10.00;90.27;99874.59;5096655;28;20035;-65
2022/04/06 01:00:01;;;;;;;8.65;6.15;;;;;;;9.95;90.41;99874.19;5098061;28;20039;-64
2022/04/06 01:02:26;;;;;;;9.55;6.55;;;;;;;9.81;89.96;99865.75;5085986;28;20024;-65
2022/04/06 01:04:52;;;;;;;10.30;6.47;;;;;;;9.78;90.04;99866.88;5095710;28;20516;-65
2022/04/06 01:07:19;;;;;;;9.98;7.47;;;;;;;9.71;90.02;99871.13;5098173;28;20119;-65
2022/04/06 01:09:44;;;;;;;9.25;6.88;;;;;;;9.71;90.09;99872.94;5093926;28;20152;-75
2022/04/06 01:12:10;;;;;;;8.75;7.22;;;;;;;9.58;89.28;99867.88;5097517;28;20110;-75
2022/04/06 01:14:38;;;;;;;14.07;8.55;;;;;;;9.57;89.14;99871.50;5094993;28;20024;-75
2022/04/06 01:17:07;;;;;;;11.95;8.00;;;;;;;9.52;89.33;99876.44;5099027;28;20480;-65
2022/04/06 01:19:43;;;;;;;11.65;8.38;;;;;;;9.44;89.74;99876.28;5096324;28;20039;-65
2022/04/06 01:22:17;;;;;;;13.35;8.98;;;;;;;9.31;90.06;99875.69;5093405;28;20118;-65
2022/04/06 01:24:44;;;;;;;11.73;8.80;;;;;;;9.29;89.74;99878.50;5096049;28;20067;-65
2022/04/06 01:27:10;;;;;;;13.15;8.57;;;;;;;9.21;90.00;99885.53;5095986;28;20031;-65
2022/04/06 01:29:39;;;;;;;11.77;8.55;;;;;;;9.12;90.36;99887.19;5098440;28;20391;-65
2022/04/06 01:32:17;;;;;;;12.15;8.85;;;;;;;9.07;90.43;99893.94;5095821;28;20092;-65
2022/04/06 01:34:44;;;;;;;13.30;8.50;;;;;;;9.00;91.21;99887.44;5098124;28;20047;-65
2022/04/06 01:37:11;;;;;;;11.02;8.95;;;;;;;8.96;92.32;99886.84;5098755;28;20776;-65
2022/04/06 01:39:38;;;;;;;12.20;9.13;;;;;;;8.91;92.81;99886.38;5093052;28;20050;-65
2022/04/06 01:42:06;;;;;;;14.70;9.15;;;;;;;8.89;93.24;99879.50;5098121;28;20080;-65
2022/04/06 01:44:32;;;;;;;12.20;9.07;;;;;;;8.82;93.61;99868.50;5095746;28;20028;-65
2022/04/06 01:46:59;;;;;;;12.30;8.82;;;;;;;8.82;93.86;99883.69;5097432;28;20036;-65
2022/04/06 01:52:13;;;;;;;13.18;8.70;;;;;;;8.79;94.98;99873.25;5051110;28;20039;-65
2022/04/06 01:54:49;;;;;;;12.27;8.48;;;;;;;8.72;95.67;99859.59;5095441;28;20047;-65
2022/04/06 01:57:16;;;;;;;11.77;8.13;;;;;;;8.79;95.79;99867.91;5084816;28;20032;-75
2022/04/06 01:59:42;;;;;;;11.93;7.80;;;;;;;8.73;95.53;99866.63;5096549;28;20032;-75
2022/04/06 02:02:08;;;;;;;11.18;8.80;;;;;;;8.74;95.29;99865.63;5099753;28;20361;-75
2022/04/06 02:04:33;;;;;;;8.77;7.22;;;;;;;8.69;95.25;99856.34;5080124;28;20395;-75
2022/04/06 02:06:59;;;;;;;12.23;7.82;;;;;;;8.70;95.19;99868.72;5095613;28;20039;-75
2022/04/06 02:09:24;;;;;;;10.15;6.97;;;;;;;8.69;94.35;99861.69;5094807;28;20468;-75
2022/04/06 02:11:50;;;;;;;10.07;7.43;;;;;;;8.68;94.26;99865.34;5095733;28;20027;-75
2022/04/06 02:14:16;;;;;;;9.60;7.22;;;;;;;8.60;95.04;99857.13;5097632;28;20028;-76
2022/04/06 02:16:43;;;;;;;9.40;7.35;;;;;;;8.56;94.56;99866.41;5096754;28;20032;-75
2022/04/06 02:19:08;;;;;;;12.25;9.10;;;;;;;8.59;94.79;99868.81;5096447;28;20019;-75
2022/04/06 02:21:34;;;;;;;16.40;10.77;;;;;;;8.59;94.71;99876.81;5096268;28;20370;-75
2022/04/06 02:24:00;;;;;;;16.42;10.02;;;;;;;8.51;94.75;99869.47;5093217;28;20024;-75
2022/04/06 02:26:27;;;;;;;14.75;10.70;;;;;;;8.53;94.61;99864.00;5093343;28;20032;-75
2022/04/06 02:28:53;;;;;;;14.80;10.38;;;;;;;8.55;94.79;99868.22;5096233;28;20524;-75
2022/04/06 02:31:19;;;;;;;11.45;8.82;;;;;;;8.56;95.08;99871.75;5094477;28;20077;-74
2022/04/06 02:33:44;;;;;;;12.20;9.00;;;;;;;8.56;94.60;99866.41;5085402;28;20039;-76
2022/04/06 02:36:10;;;;;;;11.90;8.38;;;;;;;8.55;93.94;99867.38;5082988;28;20028;-75
2022/04/06 02:38:38;;;;;;;10.88;6.97;;;;;;;8.51;93.27;99860.59;5100483;28;20020;-75
2022/04/06 02:41:08;;;;;;;9.45;6.65;;;;;;;8.50;93.22;99857.09;5078743;28;20027;-75
2022/04/06 02:43:34;;;;;;;10.00;7.15;;;;;;;8.53;92.70;99862.19;5099760;28;20064;-75
2022/04/06 02:46:00;;;;;;;10.25;7.18;;;;;;;8.52;91.78;99862.31;5101708;28;20051;-75
2022/04/06 02:48:26;;;;;;;11.38;7.45;;;;;;;8.50;92.23;99864.25;5099229;28;20024;-75
2022/04/06 02:50:51;;;;;;;10.45;7.07;;;;;;;8.42;91.66;99858.75;5099681;28;20503;-75
2022/04/06 02:53:16;;;;;;;11.35;7.57;;;;;;;8.40;91.83;99872.22;5096558;28;20103;-65
2022/04/06 02:55:42;;;;;;;9.68;7.40;;;;;;;8.41;90.91;99870.38;5089931;28;20047;-65
2022/04/06 02:58:07;;;;;;;11.32;7.13;;;;;;;8.35;91.43;99866.41;5095642;28;20024;-65
2022/04/06 03:00:33;;;;;;;8.80;6.43;;;;;;;8.33;91.48;99864.88;5094944;28;20062;-65
2022/04/06 03:02:59;;;;;;;12.00;7.95;;;;;;;8.33;91.77;99870.22;5097524;28;20051;-65
2022/04/06 03:05:27;;;;;;;11.80;8.45;;;;;;;8.26;92.01;99861.84;5089360;28;20518;-65
2022/04/06 03:07:53;;;;;;;11.98;7.70;;;;;;;8.21;91.70;99857.84;5097168;28;20400;-66
2022/04/06 03:10:18;;;;;;;10.27;7.10;;;;;;;8.21;91.42;99869.41;5100970;28;20035;-65
2022/04/06 03:12:44;;;;;;;10.32;7.18;;;;;;;8.15;91.51;99866.41;5088597;28;20039;-65
2022/04/06 03:15:10;;;;;;;10.63;7.50;;;;;;;8.19;91.53;99873.19;5097926;28;20559;-66
2022/04/06 03:17:36;;;;;;;12.13;7.70;;;;;;;8.16;92.14;99871.59;5100639;28;20097;-65
2022/04/06 03:20:03;;;;;;;15.90;7.97;;;;;;;8.10;92.34;99865.97;5090824;28;20020;-65
2022/04/06 03:22:29;;;;;;;10.18;8.15;;;;;;;8.09;92.07;99866.94;5098622;28;20511;-65
2022/04/06 03:24:54;;;;;;;10.68;7.75;;;;;;;8.11;92.35;99870.31;5096263;28;20039;-65
2022/04/06 03:27:20;;;;;;;10.63;8.13;;;;;;;8.05;92.80;99863.66;5101297;28;20060;-65
2022/04/06 03:29:45;;;;;;;13.13;7.72;;;;;;;8.10;92.39;99865.97;5097858;28;20024;-65
2022/04/06 03:32:11;;;;;;;10.40;7.95;;;;;;;8.14;92.54;99870.06;5097773;28;20116;-65
2022/04/06 03:34:37;;;;;;;11.35;8.07;;;;;;;8.10;92.85;99863.28;5097570;28;20044;-65
2022/04/06 03:37:03;;;;;;;14.80;7.88;;;;;;;8.11;92.52;99875.66;5098568;28;20609;-65
2022/04/06 03:39:29;;;;;;;15.43;8.82;;;;;;;8.13;92.65;99876.38;5098487;28;20043;-66
2022/04/06 03:41:54;;;;;;;12.95;8.68;;;;;;;8.08;92.66;99870.56;5100912;28;20754;-65
2022/04/06 03:44:20;;;;;;;13.05;9.10;;;;;;;8.03;92.23;99857.59;5098502;28;20089;-65
2022/04/06 03:46:46;;;;;;;12.98;7.80;;;;;;;8.12;93.00;99875.53;5097119;28;20035;-65
2022/04/06 03:49:11;;;;;;;11.18;7.88;;;;;;;8.10;92.41;99869.44;5099209;28;20028;-65
2022/04/06 03:51:37;;;;;;;12.52;8.05;;;;;;;8.09;92.22;99878.44;5098328;28;20033;-65
2022/04/06 03:54:03;;;;;;;12.18;8.32;;;;;;;8.05;92.04;99876.16;5098176;28;20059;-65
2022/04/06 03:56:29;;;;;;;13.00;7.65;;;;;;;8.08;92.00;99874.09;5098865;28;20056;-65
2022/04/06 03:58:55;;;;;;;11.52;7.10;;;;;;;8.06;92.21;99884.06;5099710;28;20530;-65
2022/04/06 04:01:20;;;;;;;17.60;8.05;;;;;;;8.08;91.42;99890.13;5099514;28;20027;-65
2022/04/06 04:03:46;;;;;;;11.07;7.55;;;;;;;7.99;91.89;99874.88;5103223;28;20063;-66
2022/04/06 04:06:11;;;;;;;9.82;7.32;;;;;;;8.03;91.76;99878.97;5098650;28;20028;-66
2022/04/06 04:08:37;;;;;;;10.65;7.50;;;;;;;8.05;91.64;99892.19;5100543;28;20031;-65
2022/04/06 04:11:03;;;;;;;10.68;7.20;;;;;;;8.02;90.92;99887.09;5096535;28;20038;-65
2022/04/06 04:13:28;;;;;;;9.23;7.07;;;;;;;8.01;90.93;99888.09;5099636;28;20595;-65
2022/04/06 04:15:53;;;;;;;10.55;7.68;;;;;;;7.91;90.84;99874.69;5098326;28;20039;-65
2022/04/06 04:18:19;;;;;;;11.15;7.47;;;;;;;7.99;91.04;99896.22;5100452;28;20507;-65
2022/04/06 04:20:45;;;;;;;11.38;7.15;;;;;;;7.88;90.81;99879.41;5098029;28;20551;-66
2022/04/06 04:23:14;;;;;;;10.02;7.72;;;;;;;7.95;90.64;99885.94;5092410;28;20069;-66
2022/04/06 04:25:40;;;;;;;8.70;5.90;;;;;;;7.99;90.52;99898.03;5100561;28;20411;-65
2022/04/06 04:28:06;;;;;;;10.43;7.53;;;;;;;7.98;90.92;99897.22;5100595;28;20024;-65
2022/04/06 04:30:32;;;;;;;11.52;7.50;;;;;;;7.99;91.02;99895.38;5089771;28;20043;-67
2022/04/06 04:32:58;;;;;;;11.13;7.47;;;;;;;8.01;90.49;99894.28;5098175;28;20028;-65
2022/04/06 04:35:24;;;;;;;9.77;7.10;;;;;;;7.95;90.75;99892.13;5097400;28;20576;-65
2022/04/06 04:37:49;;;;;;;10.00;6.82;;;;;;;8.00;91.00;99905.09;5098297;28;20213;-65
2022/04/06 04:40:16;;;;;;;10.50;7.03;;;;;;;7.97;90.55;99895.50;5099619;28;20027;-65
2022/04/06 04:42:42;;;;;;;9.63;7.40;;;;;;;8.03;90.97;99900.31;5092389;28;20479;-66
2022/04/06 04:45:09;;;;;;;10.23;7.05;;;;;;;8.02;90.64;99895.13;5096868;28;20027;-77
2022/04/06 04:47:35;;;;;;;9.93;7.90;;;;;;;8.09;90.16;99899.00;5101585;28;20160;-76
2022/04/06 04:50:01;;;;;;;11.63;8.38;;;;;;;8.14;90.22;99896.75;5096155;28;20035;-77
2022/04/06 04:52:27;;;;;;;14.23;9.43;;;;;;;8.17;89.91;99889.34;5085114;28;20541;-76
2022/04/06 04:54:53;;;;;;;24.35;13.95;;;;;;;8.23;90.07;99894.22;5102979;28;20034;-75
2022/04/06 04:57:19;;;;;;;23.00;15.05;;;;;;;8.26;90.35;99895.75;5100785;28;20032;-75
2022/04/06 04:59:45;;;;;;;22.58;14.20;;;;;;;8.25;89.74;99886.88;5101827;28;20439;-75
2022/04/06 05:02:10;;;;;;;19.02;13.55;;;;;;;8.37;89.38;99903.69;5100554;28;20104;-76
2022/04/06 05:04:35;;;;;;;18.90;11.45;;;;;;;8.38;89.05;99900.03;5104832;28;20401;-75
2022/04/06 05:07:01;;;;;;;15.13;10.73;;;;;;;8.42;88.73;99901.50;5083209;28;20030;-76
2022/04/06 05:09:26;;;;;;;16.23;9.90;;;;;;;8.51;88.93;99906.88;5099808;28;20475;-75
2022/04/06 05:11:52;;;;;;;14.10;9.68;;;;;;;8.62;88.18;99914.00;5098541;28;20673;-76
2022/04/06 05:14:17;;;;;;;11.75;8.88;;;;;;;8.66;87.82;99915.41;5104843;28;20024;-76
2022/04/06 05:16:43;;;;;;;12.27;8.63;;;;;;;8.73;87.41;99917.44;5097853;28;20487;-75
2022/04/06 05:19:08;;;;;;;14.13;8.30;;;;;;;8.81;86.81;99922.13;5097958;28;20024;-75
2022/04/06 05:21:34;;;;;;;12.02;8.70;;;;;;;8.90;86.32;99924.00;5103609;28;20511;-75
2022/04/06 05:23:59;;;;;;;13.93;8.30;;;;;;;8.93;86.23;99921.03;5098404;28;20026;-75
2022/04/06 05:26:25;;;;;;;9.68;7.50;;;;;;;9.05;85.14;99928.84;5103265;28;20023;-75
2022/04/06 05:28:51;;;;;;;13.15;8.63;;;;;;;9.14;84.76;99925.38;5098465;28;20079;-75
2022/04/06 05:31:17;;;;;;;11.27;8.07;;;;;;;9.24;84.04;99928.91;5098551;28;20016;-75
2022/04/06 05:33:43;;;;;;;12.35;7.90;;;;;;;9.42;83.92;99939.81;5092132;28;20040;-75
2022/04/06 05:36:09;;;;;;;12.38;7.88;;;;;;;9.54;82.93;99930.66;5084463;28;20051;-75
2022/04/06 05:38:35;;;;;;;17.27;7.88;;;;;;;9.65;81.67;99932.38;5098887;28;20467;-75
2022/04/06 05:41:02;;;;;;;9.38;7.25;;;;;;;9.74;80.89;99927.03;5084903;28;20023;-76
2022/04/06 05:43:27;;;;;;;15.93;7.45;;;;;;;9.94;80.43;99935.94;5098853;28;20435;-75
2022/04/06 05:45:53;;;;;;;13.70;7.63;;;;;;;10.10;79.50;99939.81;5099942;28;20027;-75
2022/04/06 05:48:18;;;;;;;11.90;7.47;;;;;;;10.26;79.29;99933.88;5100149;28;20020;-75
2022/04/06 05:50:44;;;;;;;10.82;7.22;;;;;;;10.43;78.18;99939.38;5097721;28;20052;-75
2022/04/06 05:53:09;;;;;;;14.70;8.10;;;;;;;10.55;77.01;99929.34;5100291;28;20027;-75
2022/04/06 05:55:35;;;;;;;12.35;6.90;;;;;;;10.60;75.41;99906.44;5083060;28;20035;-76
2022/04/06 05:58:00;;;;;;;9.95;6.80;;;;;;;10.89;74.48;99930.50;5083313;28;20031;-76
2022/04/06 06:00:26;;;;;;;9.35;7.00;;;;;;;11.05;73.73;99926.22;5097235;28;20042;-75
2022/04/06 06:02:51;;;;;;;10.98;7.60;;;;;;;11.19;73.10;99924.91;5084219;28;20024;-75
2022/04/06 06:05:17;;;;;;;9.80;6.25;;;;;;;11.36;72.47;99922.25;5083228;28;20028;-75
2022/04/06 06:07:42;;;;;;;11.07;6.22;;;;;;;11.57;71.63;99921.16;5097649;28;20082;-75
2022/04/06 06:10:08;;;;;;;9.80;6.40;;;;;;;11.72;71.21;99922.34;5099857;28;20023;-75
2022/04/06 06:12:34;;;;;;;9.95;5.72;;;;;;;11.94;70.18;99916.53;5095754;28;20054;-75
2022/04/06 06:15:01;;;;;;;8.43;6.03;;;;;;;12.16;68.62;99908.84;5102210;28;20054;-75
2022/04/06 06:17:26;;;;;;;10.80;6.55;;;;;;;12.41;67.31;99907.22;5099086;28;20038;-75
2022/04/06 06:19:52;;;;;;;9.57;6.13;;;;;;;12.64;65.42;99906.53;5096606;28;20031;-75
2022/04/06 06:22:17;;;;;;;9.70;6.82;;;;;;;12.89;65.03;99918.31;5100589;28;20103;-75
2022/04/06 06:24:43;;;;;;;10.40;6.68;;;;;;;13.09;64.43;99917.13;5094377;28;20034;-75
2022/04/06 06:27:08;;;;;;;11.98;7.05;;;;;;;13.29;63.21;99921.28;5083538;28;20031;-75
2022/04/06 06:29:34;;;;;;;12.65;8.27;;;;;;;13.49;62.46;99926.25;5097451;28;20067;-76
2022/04/06 06:32:00;;;;;;;11.57;7.18;;;;;;;13.70;62.16;99923.94;5097159;28;20028;-74
2022/04/06 06:34:25;;;;;;;12.95;7.25;;;;;;;13.87;62.07;99932.94;5096888;28;20036;-75
2022/04/06 06:36:51;;;;;;;11.35;7.43;;;;;;;14.01;61.14;99918.78;5099469;28;20031;-75
2022/04/06 06:39:16;;;;;;;12.63;7.25;;;;;;;14.26;60.25;99930.47;5094090;28;20031;-75
2022/04/06 06:41:43;;;;;;;10.23;6.53;;;;;;;14.48;59.98;99927.94;5099095;28;20023;-76
2022/04/06 06:44:09;;;;;;;10.32;6.10;;;;;;;14.71;58.59;99928.97;5085562;28;20020;-76
2022/04/06 06:46:35;;;;;;;9.27;5.95;;;;;;;14.92;57.54;99931.97;5096332;28;20398;-76
2022/04/06 06:49:03;;;;;;;7.43;6.13;;;;;;;15.00;56.42;99923.00;5096856;28;20020;-76
2022/04/06 06:51:32;;;;;;;8.93;5.60;;;;;;;15.13;55.71;99929.53;5084707;28;20059;-76
2022/04/06 06:54:00;;;;;;;9.93;5.82;;;;;;;15.18;55.19;99929.88;5096812;28;20510;-76
2022/04/06 06:56:27;;;;;;;7.95;5.80;;;;;;;15.22;55.04;99923.09;5091080;28;20589;-76
2022/04/06 06:58:52;;;;;;;6.72;5.32;;;;;;;15.38;55.30;99930.38;5096850;28;20063;-75
2022/04/06 07:01:17;;;;;;;12.18;6.00;;;;;;;15.54;54.92;99924.84;5094005;28;20439;-76
2022/04/06 07:03:43;;;;;;;9.25;6.72;;;;;;;15.67;54.48;99915.16;5099278;28;20030;-75
2022/04/06 07:06:09;;;;;;;10.65;6.70;;;;;;;15.89;54.21;99930.59;5099056;28;20107;-76
2022/04/06 07:08:34;;;;;;;8.07;6.00;;;;;;;16.10;53.96;99929.13;5096627;28;20023;-76
2022/04/06 07:11:00;;;;;;;8.75;6.28;;;;;;;16.31;52.48;99923.91;5096441;28;20031;-76
2022/04/06 07:13:25;;;;;;;10.43;6.53;;;;;;;16.56;51.53;99923.56;5084310;28;20022;-75
2022/04/06 07:15:51;;;;;;;7.18;5.90;;;;;;;16.72;50.83;99923.41;5098431;28;20106;-75
2022/04/06 07:18:18;;;;;;;8.07;6.30;;;;;;;16.89;50.22;99916.81;5096602;28;20110;-75
2022/04/06 07:20:44;;;;;;;6.53;5.88;;;;;;;17.11;50.52;99936.72;5095376;28;20032;-65
2022/04/06 07:23:10;;;;;;;8.18;5.60;;;;;;;17.34;49.41;99938.34;5096288;28;20038;-75
2022/04/06 07:25:36;;;;;;;6.95;5.18;;;;;;;17.51;48.68;99920.88;5098854;28;20043;-75
2022/04/06 07:28:03;;;;;;;6.72;5.57;;;;;;;17.80;48.79;99928.16;5083568;28;20033;-75
2022/04/06 07:30:29;;;;;;;10.10;5.63;;;;;;;18.04;46.66;99933.22;5096262;28;20032;-75
2022/04/06 07:32:56;;;;;;;7.40;5.25;;;;;;;18.26;46.07;99936.78;5093526;28;20357;-75
2022/04/06 07:35:22;;;;;;;8.13;5.32;;;;;;;18.47;45.60;99939.56;5093060;28;20519;-76
2022/04/06 07:37:49;;;;;;;9.00;5.68;;;;;;;18.66;45.06;99923.44;5079502;28;20020;-76
2022/04/06 07:40:25;;;;;;;10.75;5.25;;;;;;;18.91;44.35;99940.16;5100436;28;20020;-76
2022/04/06 07:42:52;;;;;;;7.15;5.15;;;;;;;19.12;43.47;99935.50;5090835;28;20020;-75
2022/04/06 07:45:19;;;;;;;7.07;5.20;;;;;;;19.27;43.31;99929.97;5096125;28;20376;-75
2022/04/06 07:47:47;;;;;;;7.20;5.25;;;;;;;19.49;42.40;99937.88;5096660;28;20105;-76
2022/04/06 07:50:13;;;;;;;7.85;5.53;;;;;;;19.55;41.88;99933.50;5082499;28;20391;-75
2022/04/06 07:52:39;;;;;;;9.57;5.05;;;;;;;19.66;42.11;99935.63;5101376;28;20035;-76
2022/04/06 07:55:06;;;;;;;8.85;5.78;;;;;;;19.85;42.10;99945.78;5097688;28;20102;-75
2022/04/06 07:57:33;;;;;;;10.48;5.43;;;;;;;20.04;41.27;99943.13;5086148;28;20434;-75
2022/04/06 08:00:03;;;;;;;12.75;5.32;;;;;;;20.23;41.42;99941.53;5101942;28;20028;-75
2022/04/06 08:02:28;;;;;;;9.48;6.03;;;;;;;20.41;41.16;99933.59;5099672;28;20078;-75
2022/04/06 08:04:54;;;;;;;8.90;6.30;;;;;;;20.63;40.89;99943.28;5099341;28;20051;-75
2022/04/06 08:07:19;;;;;;;11.10;6.32;;;;;;;20.96;39.99;99940.63;5100069;28;20058;-75
2022/04/06 08:09:44;;;;;;;8.07;5.40;;;;;;;21.42;39.52;99933.19;5100158;28;20058;-76
2022/04/06 08:12:10;;;;;;;6.60;5.60;;;;;;;22.07;38.23;99931.09;5104090;28;20019;-75
2022/04/06 08:14:36;;;;;;;8.60;6.07;;;;;;;22.67;36.29;99926.13;5102338;28;20028;-76
2022/04/06 08:17:02;;;;;;;9.77;5.88;;;;;;;23.46;34.91;99924.34;5097336;28;20036;-76
2022/04/06 08:19:28;;;;;;;10.40;5.80;;;;;;;24.44;33.37;99930.28;5085006;28;20055;-76
2022/04/06 08:21:53;;;;;;;9.27;4.95;;;;;;;25.62;32.40;99925.56;5099666;28;20039;-76
2022/04/06 08:24:19;;;;;;;8.50;5.70;;;;;;;26.75;30.28;99929.22;5100122;28;20072;-76
2022/04/06 08:26:46;;;;;;;8.40;5.70;;;;;;;27.70;28.26;99930.78;5101732;28;20031;-76
2022/04/06 08:29:12;;;;;;;10.10;6.13;;;;;;;28.46;27.37;99922.38;5099700;28;20023;-76
2022/04/06 08:31:37;;;;;;;6.43;5.20;;;;;;;29.56;26.17;99915.03;5097589;28;20123;-77
2022/04/06 08:34:04;;;;;;;7.85;4.60;;;;;;;30.15;24.37;99916.44;5099832;28;20383;-77
2022/04/06 08:36:30;;;;;;;7.57;4.63;;;;;;;30.53;23.61;99921.56;5087882;28;20039;-77
2022/04/06 08:38:56;;;;;;;5.97;4.38;;;;;;;31.00;22.66;99918.56;5103790;28;20072;-77
2022/04/06 08:41:26;;;;;;;5.63;4.55;;;;;;;31.50;22.56;99904.69;5099041;28;20024;-77
2022/04/06 08:43:52;;;;;;;6.88;3.47;;;;;;;32.10;21.89;99910.06;5085130;28;20065;-77
2022/04/06 08:46:19;;;;;;;7.82;4.20;;;;;;;32.37;21.47;99906.91;5105360;28;20019;-77
2022/04/06 08:48:51;;;;;;;6.93;4.43;;;;;;;32.47;21.84;99913.19;5099116;28;20520;-77
2022/04/06 08:51:18;;;;;;;7.80;5.03;;;;;;;31.61;21.84;99906.31;5083531;28;20492;-77
2022/04/06 08:53:46;;;;;;;7.15;5.30;;;;;;;31.25;22.80;99904.72;5098403;28;20035;-77
2022/04/06 08:56:13;;;;;;;8.23;4.65;;;;;;;30.46;23.23;99909.91;5082073;28;20028;-77
2022/04/06 08:58:39;;;;;;;7.40;5.50;;;;;;;29.59;24.31;99900.66;5100486;28;20028;-76
2022/04/06 09:01:05;;;;;;;6.53;4.80;;;;;;;28.84;24.86;99902.03;5100001;28;20438;-76
2022/04/06 09:03:30;;;;;;;7.38;4.60;;;;;;;27.96;26.01;99897.78;5095363;28;20101;-76
2022/04/06 09:06:10;;;;;;;8.48;5.25;;;;;;;27.10;26.53;99905.91;5100054;28;20058;-77
2022/04/06 09:08:41;;;;;;;5.90;4.40;;;;;;;26.15;27.65;99899.50;5103654;28;20042;-76
2022/04/06 09:11:19;;;;;;;8.02;5.40;;;;;;;25.61;28.03;99901.91;5098006;28;20076;-76
2022/04/06 09:13:46;;;;;;;8.32;5.50;;;;;;;24.74;29.63;99889.13;5080060;28;20024;-76
2022/04/06 09:16:14;;;;;;;7.68;5.05;;;;;;;24.18;30.11;99897.75;5100652;28;20124;-76
2022/04/06 09:18:49;;;;;;;9.82;5.20;;;;;;;23.61;31.09;99883.75;5095527;28;20062;-76
2022/04/06 09:21:17;;;;;;;8.40;5.32;;;;;;;23.27;31.49;99885.19;5098185;28;20032;-76
2022/04/06 09:23:48;;;;;;;6.75;4.80;;;;;;;23.04;32.05;99886.88;5095475;28;20645;-76
2022/04/06 09:26:16;;;;;;;8.23;5.03;;;;;;;22.84;32.41;99884.34;5100879;28;20034;-76
2022/04/06 09:28:44;;;;;;;7.70;4.68;;;;;;;22.71;32.75;99880.88;5101619;28;20039;-75
2022/04/06 09:31:15;;;;;;;9.57;5.05;;;;;;;22.58;32.28;99872.78;5084516;28;20028;-76
2022/04/06 09:33:41;;;;;;;10.63;4.80;;;;;;;22.54;32.91;99861.47;5100294;28;20024;-76
2022/04/06 09:36:20;;;;;;;6.35;3.90;;;;;;;22.68;32.64;99868.50;5097365;28;20054;-76
2022/04/06 09:38:51;;;;;;;8.25;4.40;;;;;;;22.76;32.06;99870.91;5094956;28;20045;-76
2022/04/06 09:41:18;;;;;;;8.13;4.07;;;;;;;22.80;31.78;99860.38;5100179;28;20441;-76
2022/04/06 09:43:45;;;;;;;8.40;4.13;;;;;;;22.93;31.16;99868.47;5097764;28;20105;-76
2022/04/06 09:49:18;;;;;;;6.85;4.20;;;;;;;23.09;31.01;99860.53;5099725;28;20058;-76
2022/04/06 09:51:51;;;;;;;5.57;4.32;;;;;;;23.03;31.06;99845.00;5100392;28;20071;-76
2022/04/06 09:54:18;;;;;;;6.38;4.85;;;;;;;23.14;30.95;99852.47;5097779;28;20024;-75
2022/04/06 09:56:44;;;;;;;7.75;4.60;;;;;;;23.12;31.49;99849.09;5099723;28;20361;-75
2022/04/06 09:59:14;;;;;;;6.82;4.30;;;;;;;23.15;30.98;99831.41;5081996;28;20035;-75
2022/04/06 10:01:44;;;;;;;7.15;3.75;;;;;;;23.14;31.06;99837.94;5100009;28;20224;-76
2022/04/06 10:04:12;;;;;;;7.80;3.28;;;;;;;23.11;31.24;99844.69;5095007;28;20027;-75
2022/04/06 10:06:39;;;;;;;7.88;4.22;;;;;;;23.00;31.30;99825.47;5094794;28;20135;-75
2022/04/06 10:09:06;;;;;;;9.05;4.50;;;;;;;22.95;31.15;99828.06;5098968;28;21007;-76
2022/04/06 10:11:34;;;;;;;7.18;4.90;;;;;;;22.86;31.46;99821.22;5082163;28;20043;-75
2022/04/06 10:14:01;;;;;;;7.32;4.95;;;;;;;22.80;31.43;99820.22;5094747;28;20040;-75
2022/04/06 10:16:27;;;;;;;6.30;4.20;;;;;;;22.78;31.53;99811.38;5098535;28;20491;-65
2022/04/06 10:18:54;;;;;;;6.60;4.65;;;;;;;22.77;31.39;99812.47;5096470;28;20115;-66
2022/04/06 10:21:22;;;;;;;7.68;4.53;;;;;;;22.75;31.56;99809.09;5095454;28;20146;-66
2022/04/06 10:23:51;;;;;;;6.78;4.63;;;;;;;22.78;31.64;99807.81;5095722;28;20035;-66
2022/04/06 10:26:42;;;;;;;8.50;5.43;;;;;;;22.72;31.56;99795.88;5086040;28;20106;-66
2022/04/06 10:29:08;;;;;;;7.10;4.32;;;;;;;22.73;31.72;99799.47;5087035;28;20035;-66
2022/04/06 10:31:34;;;;;;;5.20;3.63;;;;;;;22.76;31.53;99802.56;5099589;28;20475;-66
2022/04/06 10:34:20;;;;;;;6.82;4.00;;;;;;;22.72;31.43;99800.50;5093069;28;20034;-65
2022/04/06 10:37:11;;;;;;;5.40;3.47;;;;;;;22.76;31.30;99790.81;5090657;28;20051;-66
2022/04/06 10:39:51;;;;;;;7.80;3.45;;;;;;;22.83;30.77;99783.38;5095283;28;20027;-65
2022/04/06 10:42:28;;;;;;;6.90;3.80;;;;;;;22.75;31.18;99773.56;5098052;28;20464;-66
2022/04/06 10:44:55;;;;;;;5.82;3.78;;;;;;;22.81;31.21;99778.13;5084485;28;20043;-66
2022/04/06 10:47:22;;;;;;;6.78;4.30;;;;;;;22.80;31.30;99771.00;5094399;28;20443;-66
2022/04/06 10:50:06;;;;;;;7.07;3.72;;;;;;;22.72;31.37;99773.16;5094457;28;20472;-66
2022/04/06 10:52:31;;;;;;;7.35;4.30;;;;;;;22.67;31.66;99765.66;5095325;28;20111;-66
2022/04/06 10:55:08;;;;;;;5.05;3.75;;;;;;;22.60;31.86;99753.94;5093606;28;20560;-66
2022/04/06 10:58:02;;;;;;;4.25;3.17;;;;;;;22.60;31.52;99755.84;5095239;28;20169;-66
2022/04/06 11:00:28;;;;;;;6.93;3.20;;;;;;;22.51;31.59;99738.06;5095137;28;20032;-66
2022/04/06 11:02:54;;;;;;;4.97;3.45;;;;;;;22.61;31.44;99749.31;5087749;28;20488;-66
2022/04/06 11:05:45;;;;;;;5.75;3.75;;;;;;;22.56;31.80;99741.78;5095809;28;20058;-66
2022/04/06 11:12:19;;;;;;;4.60;3.08;;;;;;;22.52;31.43;99746.03;5092937;28;20089;-66
2022/04/06 11:14:47;;;;;;;5.53;2.50;;;;;;;22.53;31.75;99727.75;5084983;28;20043;-66
2022/04/06 11:20:10;;;;;;;4.05;2.95;;;;;;;22.38;31.19;99714.41;5097859;28;20031;-66
2022/04/06 11:22:42;;;;;;;4.95;3.00;;;;;;;22.39;31.36;99716.06;5095577;28;20453;-66
2022/04/06 11:25:20;;;;;;;3.75;2.55;;;;;;;22.32;31.68;99727.03;5096038;28;20111;-67
2022/04/06 11:27:47;;;;;;;3.83;2.58;;;;;;;22.29;31.93;99716.56;5098335;28;20030;-67
2022/04/06 11:30:17;;;;;;;3.00;2.40;;;;;;;22.31;31.81;99724.53;5091269;28;20040;-66
2022/04/06 11:32:50;;;;;;;3.20;2.40;;;;;;;22.28;31.34;99714.09;5096365;28;20614;-67
2022/04/06 11:35:16;;;;;;;3.40;2.22;;;;;;;22.29;31.19;99702.09;5091551;28;20056;-66
2022/04/06 11:37:48;;;;;;;2.70;2.30;;;;;;;22.30;31.57;99704.59;5089890;28;20031;-66
2022/04/06 11:40:24;;;;;;;3.30;2.58;;;;;;;22.30;31.57;99701.84;5097601;28;20035;-66
2022/04/06 11:42:52;;;;;;;4.85;2.55;;;;;;;22.22;31.96;99685.72;5098803;28;20392;-66
2022/04/06 11:45:25;;;;;;;6.47;2.80;;;;;;;22.26;32.12;99688.88;5098507;28;20035;-66